Time;durP1;ratioP1;P1;durP2;ratioP2;P2;SDS_P1;SDS_P2;PMS_P1;PMS_P2;Temp;Humidity;BMP_temperature;BMP_pressure;BME280_temperature;BME280_humidity;BME280_pressure;Samples;Min_cycle;Max_cycle;Signal;HPM_P1;HPM_P2
2023/05/22 00:04:53;;;;;;;5.60;2.80;;;;;;;15.84;52.35;99243.45;223683;182;145298;-62
2023/05/22 00:09:56;;;;;;;5.20;2.80;;;;;;;15.80;52.71;99239.16;223665;182;138447;-63
2023/05/22 00:15:00;;;;;;;6.30;2.80;;;;;;;15.72;53.05;99231.41;223681;182;136708;-63
2023/05/22 00:20:09;;;;;;;3.10;2.60;;;;;;;15.65;52.81;99226.91;223711;182;145603;-64
2023/05/22 00:25:16;;;;;;;3.50;2.60;;;;;;;15.59;53.05;99230.73;223657;182;138855;-63
2023/05/22 00:30:19;;;;;;;3.40;2.50;;;;;;;15.54;53.01;99233.89;223754;182;138318;-63
2023/05/22 00:35:22;;;;;;;5.20;2.80;;;;;;;15.49;53.00;99234.98;223741;182;145949;-62
2023/05/22 00:40:26;;;;;;;4.30;2.80;;;;;;;15.44;53.30;99227.75;223858;182;138636;-62
2023/05/22 00:45:29;;;;;;;3.50;2.80;;;;;;;15.37;53.37;99228.39;223794;182;136277;-63
2023/05/22 00:50:33;;;;;;;5.40;2.60;;;;;;;15.34;53.41;99232.41;223762;182;145319;-64
2023/05/22 00:55:39;;;;;;;5.20;2.60;;;;;;;15.29;53.43;99226.90;223744;182;140423;-62
2023/05/22 01:00:58;;;;;;;5.20;2.90;;;;;;;15.25;53.42;99228.14;223829;182;136634;-62
2023/05/22 01:06:02;;;;;;;5.40;2.80;;;;;;;15.20;53.83;99226.02;223722;182;147364;-62
2023/05/22 01:11:29;;;;;;;5.20;2.50;;;;;;;15.16;54.05;99220.06;223719;182;138420;-61
2023/05/22 01:16:45;;;;;;;5.80;2.70;;;;;;;15.10;54.06;99214.65;223745;182;137711;-63
2023/05/22 01:22:29;;;;;;;6.60;2.60;;;;;;;15.03;54.25;99212.86;223734;182;147653;-62
2023/05/22 01:27:54;;;;;;;4.60;2.70;;;;;;;14.94;54.45;99212.16;223686;182;138238;-62
2023/05/22 01:32:59;;;;;;;4.10;2.70;;;;;;;14.82;54.75;99217.31;223655;182;136751;-63
2023/05/22 01:38:03;;;;;;;4.70;3.10;;;;;;;14.71;55.07;99214.43;223676;182;146942;-63
2023/05/22 01:43:07;;;;;;;5.70;2.80;;;;;;;14.61;55.51;99217.49;223769;182;138360;-63
2023/05/22 01:48:11;;;;;;;5.80;3.10;;;;;;;14.51;55.64;99217.02;223695;181;137414;-62
2023/05/22 01:53:27;;;;;;;5.20;3.10;;;;;;;14.41;56.09;99213.27;223701;181;146929;-63
2023/05/22 01:58:41;;;;;;;6.40;2.90;;;;;;;14.31;56.65;99208.70;223719;182;138496;-63
2023/05/22 02:03:50;;;;;;;6.70;3.10;;;;;;;14.18;56.93;99207.50;223644;182;136858;-61
2023/05/22 02:08:54;;;;;;;6.50;3.40;;;;;;;14.10;57.35;99215.56;223820;182;147579;-63
2023/05/22 02:14:00;;;;;;;5.10;3.00;;;;;;;14.03;57.50;99218.79;223646;182;139046;-63
2023/05/22 02:19:06;;;;;;;4.50;3.10;;;;;;;13.96;57.67;99220.16;223766;182;139117;-63
2023/05/22 02:24:10;;;;;;;4.80;2.90;;;;;;;13.89;58.03;99223.54;223696;182;147877;-66
2023/05/22 02:29:14;;;;;;;6.00;3.00;;;;;;;13.89;57.84;99225.70;223654;181;138466;-62
2023/05/22 02:34:18;;;;;;;4.90;3.00;;;;;;;13.86;58.10;99222.72;223706;182;136850;-61
2023/05/22 02:39:22;;;;;;;7.60;3.20;;;;;;;13.81;57.94;99220.56;223786;182;147320;-60
2023/05/22 02:44:25;;;;;;;10.20;7.00;;;;;;;13.79;58.15;99218.59;223631;182;139800;-62
2023/05/22 02:49:29;;;;;;;5.50;3.80;;;;;;;13.78;58.22;99219.70;223707;182;136701;-63
2023/05/22 02:54:32;;;;;;;27.40;20.70;;;;;;;13.82;57.98;99214.56;223620;182;147214;-64
2023/05/22 02:59:35;;;;;;;5.20;4.00;;;;;;;13.90;58.04;99207.06;223706;179;138882;-64
2023/05/22 03:04:39;;;;;;;4.30;3.00;;;;;;;14.09;58.54;99205.63;223781;182;136957;-64
2023/05/22 03:09:43;;;;;;;7.00;3.20;;;;;;;14.44;57.92;99209.53;223622;182;148085;-64
2023/05/22 03:14:46;;;;;;;9.00;3.10;;;;;;;14.53;57.28;99206.31;223789;182;138785;-64
2023/05/22 03:19:50;;;;;;;8.70;3.10;;;;;;;14.59;57.04;99205.90;223653;182;139663;-64
2023/05/22 03:24:53;;;;;;;8.20;3.20;;;;;;;14.64;56.79;99205.33;223608;182;147707;-64
2023/05/22 03:29:56;;;;;;;5.80;3.50;;;;;;;14.71;56.58;99207.46;223707;182;138478;-64
2023/05/22 03:35:00;;;;;;;21.00;16.30;;;;;;;14.73;56.01;99207.28;223629;183;137134;-64
2023/05/22 03:40:04;;;;;;;7.60;3.90;;;;;;;14.61;55.64;99211.41;223474;182;147416;-62
2023/05/22 03:45:08;;;;;;;9.90;3.50;;;;;;;14.44;55.88;99210.95;223736;181;138743;-64
2023/05/22 03:50:12;;;;;;;5.60;3.10;;;;;;;14.30;56.37;99203.95;223713;182;138679;-63
2023/05/22 03:55:15;;;;;;;6.70;3.40;;;;;;;14.22;56.30;99200.04;223741;182;147139;-63
2023/05/22 04:00:19;;;;;;;4.70;3.00;;;;;;;14.21;56.35;99202.27;223599;183;138973;-65
2023/05/22 04:05:23;;;;;;;6.10;3.10;;;;;;;14.24;56.39;99201.52;223702;182;136508;-62
2023/05/22 04:10:26;;;;;;;21.20;11.80;;;;;;;14.26;56.50;99205.48;223680;182;147347;-60
2023/05/22 04:15:32;;;;;;;4.60;3.50;;;;;;;14.29;56.81;99207.02;223582;182;138286;-65
2023/05/22 04:20:35;;;;;;;6.50;3.30;;;;;;;14.33;56.86;99204.79;223721;182;137230;-64
2023/05/22 04:25:39;;;;;;;6.30;3.60;;;;;;;14.37;57.00;99210.69;223787;182;147597;-63
2023/05/22 04:30:43;;;;;;;9.50;3.90;;;;;;;14.42;57.10;99208.73;223621;181;138907;-62
2023/05/22 04:35:47;;;;;;;6.60;3.40;;;;;;;14.51;56.90;99207.23;223771;183;137236;-64
2023/05/22 04:40:51;;;;;;;8.30;3.70;;;;;;;14.60;56.93;99204.38;223611;183;146913;-64
2023/05/22 04:45:55;;;;;;;5.70;3.60;;;;;;;14.69;56.91;99198.37;223667;182;140855;-65
2023/05/22 04:51:01;;;;;;;10.50;3.80;;;;;;;14.74;57.02;99191.54;223718;181;137206;-65
2023/05/22 04:56:05;;;;;;;7.90;3.80;;;;;;;14.81;57.22;99190.06;223686;182;147602;-66
2023/05/22 05:01:09;;;;;;;10.30;4.50;;;;;;;14.88;57.34;99191.48;223712;183;139165;-62
2023/05/22 05:06:13;;;;;;;6.90;3.50;;;;;;;14.95;57.29;99191.56;223698;182;137051;-64
2023/05/22 05:11:16;;;;;;;7.40;3.70;;;;;;;15.00;57.16;99193.11;222925;182;147686;-61
2023/05/22 05:16:23;;;;;;;7.50;4.40;;;;;;;15.05;57.18;99192.86;223649;182;138547;-61
2023/05/22 05:21:37;;;;;;;7.40;4.10;;;;;;;15.14;57.33;99191.25;223689;182;137607;-66
2023/05/22 05:26:41;;;;;;;8.60;4.30;;;;;;;15.27;57.44;99192.75;223746;182;147729;-64
2023/05/22 05:31:45;;;;;;;13.70;4.70;;;;;;;15.41;57.12;99192.39;223659;182;138766;-64
2023/05/22 05:37:13;;;;;;;8.90;4.50;;;;;;;15.54;56.16;99190.98;223568;183;136962;-65
2023/05/22 05:42:17;;;;;;;6.00;4.10;;;;;;;15.60;55.52;99192.74;223690;182;147729;-65
2023/05/22 05:47:22;;;;;;;5.60;3.60;;;;;;;15.71;55.36;99190.84;223632;182;138509;-63
2023/05/22 05:52:31;;;;;;;8.60;3.30;;;;;;;15.77;55.17;99187.34;223742;182;136976;-64
2023/05/22 05:57:37;;;;;;;7.00;3.20;;;;;;;15.88;55.31;99183.05;223728;181;147192;-64
2023/05/22 06:02:44;;;;;;;8.40;3.30;;;;;;;16.01;55.45;99180.00;223756;183;138334;-63
2023/05/22 06:07:59;;;;;;;6.70;3.50;;;;;;;16.16;55.20;99173.73;223669;183;137746;-66
2023/05/22 06:13:02;;;;;;;6.30;3.30;;;;;;;16.33;55.01;99176.33;223671;182;147593;-61
2023/05/22 06:18:05;;;;;;;5.60;3.30;;;;;;;16.72;57.68;99172.09;223705;182;139011;-61
2023/05/22 06:23:09;;;;;;;10.30;3.40;;;;;;;17.42;57.07;99169.66;223664;182;137258;-61
2023/05/22 06:28:13;;;;;;;5.30;3.00;;;;;;;17.73;54.71;99170.09;223745;182;147446;-62
2023/05/22 06:33:16;;;;;;;7.40;3.30;;;;;;;17.90;53.87;99166.14;223647;182;138478;-61
2023/05/22 06:38:20;;;;;;;8.70;3.60;;;;;;;18.07;53.07;99166.16;223788;182;140276;-60
2023/05/22 06:43:24;;;;;;;8.70;3.40;;;;;;;18.18;52.04;99170.74;223563;182;146954;-62
2023/05/22 06:48:39;;;;;;;6.70;3.30;;;;;;;18.34;51.89;99166.70;223619;182;140176;-61
2023/05/22 06:53:50;;;;;;;7.50;3.30;;;;;;;18.50;51.39;99166.90;223705;182;137067;-62
2023/05/22 06:58:58;;;;;;;7.40;3.10;;;;;;;18.65;51.05;99165.45;223571;182;147141;-63
2023/05/22 07:04:19;;;;;;;7.20;3.20;;;;;;;18.77;50.61;99164.56;223623;181;138906;-62
2023/05/22 07:09:35;;;;;;;20.70;4.40;;;;;;;18.85;50.45;99165.09;223596;182;136753;-64
2023/05/22 07:14:38;;;;;;;8.00;3.50;;;;;;;19.02;51.19;99164.60;223711;182;150627;-65
2023/05/22 07:19:43;;;;;;;6.10;3.60;;;;;;;19.20;51.01;99164.08;223575;182;139697;-64
2023/05/22 07:24:49;;;;;;;6.70;3.30;;;;;;;19.38;49.71;99154.85;223630;182;136905;-67
2023/05/22 07:29:55;;;;;;;9.70;3.40;;;;;;;19.45;49.37;99155.90;223560;183;146943;-68
2023/05/22 07:34:59;;;;;;;6.30;3.20;;;;;;;19.60;48.74;99153.41;223608;182;138445;-65
2023/05/22 07:40:05;;;;;;;8.60;3.40;;;;;;;19.66;48.61;99152.61;223675;182;137892;-69
2023/05/22 07:45:10;;;;;;;7.10;3.50;;;;;;;19.74;48.25;99149.36;223712;181;147546;-68
2023/05/22 07:50:14;;;;;;;6.00;3.60;;;;;;;19.77;47.94;99153.75;223551;182;139627;-64
2023/05/22 07:55:20;;;;;;;10.90;3.80;;;;;;;19.76;47.70;99155.46;223613;183;140737;-63
2023/05/22 08:00:26;;;;;;;13.10;3.40;;;;;;;19.72;47.94;99157.44;223762;182;147203;-64
2023/05/22 08:05:32;;;;;;;8.50;3.90;;;;;;;19.79;48.33;99156.61;223644;182;138847;-63
2023/05/22 08:10:37;;;;;;;9.70;3.70;;;;;;;19.84;48.22;99156.07;223669;181;136876;-64
2023/05/22 08:16:02;;;;;;;6.40;3.10;;;;;;;19.88;47.43;99156.11;223732;182;148923;-64
2023/05/22 08:21:05;;;;;;;5.90;3.10;;;;;;;19.95;47.95;99152.36;223722;182;139949;-64
2023/05/22 08:26:10;;;;;;;5.70;3.20;;;;;;;20.09;47.78;99152.95;223758;182;137927;-63
2023/05/22 08:31:13;;;;;;;5.20;3.10;;;;;;;20.11;47.24;99154.46;223756;181;146920;-65
2023/05/22 08:36:16;;;;;;;8.20;3.30;;;;;;;20.10;47.53;99154.59;223738;182;138470;-64
2023/05/22 08:41:20;;;;;;;5.80;3.40;;;;;;;20.12;47.19;99158.02;223756;182;136944;-65
2023/05/22 08:46:27;;;;;;;5.80;3.20;;;;;;;20.16;47.62;99162.11;223771;182;147963;-62
2023/05/22 08:51:33;;;;;;;8.20;3.00;;;;;;;20.23;47.20;99159.08;223709;182;140094;-61
2023/05/22 08:56:37;;;;;;;8.50;3.60;;;;;;;20.28;47.06;99154.58;223821;182;137249;-61
2023/05/22 09:01:56;;;;;;;6.70;3.10;;;;;;;20.36;47.19;99152.05;223672;182;148757;-63
2023/05/22 09:07:13;;;;;;;6.40;3.10;;;;;;;20.45;46.99;99151.41;223716;181;138265;-62
2023/05/22 09:12:17;;;;;;;9.00;3.30;;;;;;;20.54;46.54;99142.77;223637;181;137091;-64
2023/05/22 09:17:20;;;;;;;8.90;3.10;;;;;;;20.65;45.48;99141.20;223687;181;147032;-63
2023/05/22 09:22:34;;;;;;;8.30;3.40;;;;;;;20.67;43.76;99139.90;223674;182;139977;-64
2023/05/22 09:27:37;;;;;;;6.50;3.50;;;;;;;20.77;44.93;99134.66;223785;182;137504;-64
2023/05/22 09:32:40;;;;;;;7.20;3.00;;;;;;;20.87;44.82;99129.13;223764;182;147380;-64
2023/05/22 09:37:43;;;;;;;10.70;3.20;;;;;;;20.92;44.13;99123.71;223660;182;139196;-62
2023/05/22 09:42:46;;;;;;;5.10;2.90;;;;;;;20.97;43.70;99121.93;223794;182;137773;-62
2023/05/22 09:47:50;;;;;;;13.00;2.90;;;;;;;21.04;43.40;99124.46;223635;182;148643;-63
2023/05/22 09:52:53;;;;;;;6.30;2.60;;;;;;;21.18;43.28;99116.13;223611;181;139850;-65
2023/05/22 09:57:57;;;;;;;4.40;2.70;;;;;;;21.28;43.00;99111.10;223756;182;137169;-62
2023/05/22 10:03:06;;;;;;;5.10;2.90;;;;;;;21.41;42.68;99109.35;223734;183;147977;-64
2023/05/22 10:08:13;;;;;;;7.10;3.30;;;;;;;21.52;42.49;99105.23;223379;182;139110;-64
2023/05/22 10:13:20;;;;;;;14.10;7.40;;;;;;;21.67;42.39;99106.14;223588;182;138107;-65
2023/05/22 10:18:25;;;;;;;13.10;6.80;;;;;;;21.66;42.15;99097.23;223661;183;146991;-64
2023/05/22 10:23:29;;;;;;;8.40;3.40;;;;;;;21.62;43.61;99095.09;223702;182;139897;-64
2023/05/22 10:28:45;;;;;;;10.70;3.40;;;;;;;21.80;43.49;99085.59;223655;182;136643;-64
2023/05/22 10:34:11;;;;;;;5.80;3.10;;;;;;;21.99;42.87;99086.07;223629;182;148245;-64
2023/05/22 10:39:44;;;;;;;7.00;2.90;;;;;;;22.14;42.78;99083.84;223656;182;139439;-63
2023/05/22 10:44:50;;;;;;;11.20;3.00;;;;;;;22.25;42.45;99082.30;223718;182;137345;-64
2023/05/22 10:50:09;;;;;;;4.50;2.70;;;;;;;22.45;41.20;99087.73;223522;182;269575;-63
2023/05/22 10:55:14;;;;;;;11.80;2.90;;;;;;;22.68;40.26;99080.65;223618;182;140261;-63
2023/05/22 11:00:23;;;;;;;6.00;2.60;;;;;;;22.88;40.40;99070.00;223755;181;139994;-64
2023/05/22 11:33:55;;;;;;;9.50;2.60;;;;;;;23.77;36.59;99030.31;221373;193;666617;-63
2023/05/22 11:39:03;;;;;;;;;;;;;;;23.98;35.68;99027.36;223003;187;136343;-64
2023/05/22 11:44:07;;;;;;;8.70;3.40;;;;;;;24.12;34.15;99032.34;223277;185;145798;-64
2023/05/22 11:49:13;;;;;;;7.50;2.90;;;;;;;24.28;33.68;99029.90;222973;184;138718;-65
2023/05/22 11:54:17;;;;;;;9.00;2.90;;;;;;;24.39;32.99;99036.40;223434;184;137390;-63
2023/05/22 11:59:21;;;;;;;8.30;2.80;;;;;;;24.49;31.98;99028.52;223538;184;144312;-63
2023/05/22 12:04:24;;;;;;;6.70;2.70;;;;;;;24.47;31.47;99027.44;223472;185;138548;-65
2023/05/22 12:09:27;;;;;;;7.30;2.90;;;;;;;24.58;31.41;99028.36;223464;184;136052;-63
2023/05/22 12:14:31;;;;;;;6.40;2.90;;;;;;;24.81;31.51;99029.77;223467;184;259097;-63
2023/05/22 12:19:34;;;;;;;7.10;2.70;;;;;;;24.99;30.57;99027.68;223625;183;139367;-63
2023/05/22 12:24:41;;;;;;;10.70;2.70;;;;;;;25.06;30.43;99026.86;223685;183;136964;-63
2023/05/22 12:29:44;;;;;;;6.30;3.30;;;;;;;25.22;30.61;99026.59;223615;183;145292;-64
2023/05/22 12:34:49;;;;;;;25.20;16.00;;;;;;;25.36;30.72;99016.84;223504;183;139695;-62
2023/05/22 12:39:58;;;;;;;13.70;3.10;;;;;;;25.30;30.35;99007.02;223539;183;137490;-64
2023/05/22 12:45:02;;;;;;;14.70;3.40;;;;;;;25.24;30.22;98999.60;223625;184;146882;-62
2023/05/22 12:50:06;;;;;;;16.20;3.30;;;;;;;25.20;29.72;98994.48;223482;183;138456;-64
2023/05/22 12:55:11;;;;;;;4.50;2.50;;;;;;;25.21;29.70;98989.45;223637;183;137188;-64
2023/05/22 13:00:15;;;;;;;7.60;3.10;;;;;;;25.40;29.42;98975.56;223582;183;146780;-65
2023/05/22 13:05:18;;;;;;;12.60;2.80;;;;;;;25.37;29.68;98976.93;223545;184;139523;-64
2023/05/22 13:10:21;;;;;;;8.30;2.70;;;;;;;25.46;30.24;98975.24;223617;183;136277;-64
2023/05/22 13:15:28;;;;;;;4.90;2.50;;;;;;;25.88;29.79;98974.70;223683;183;145887;-64
2023/05/22 13:20:31;;;;;;;8.30;2.50;;;;;;;26.08;29.39;98972.50;223449;183;138977;-65
2023/05/22 13:25:34;;;;;;;4.40;2.60;;;;;;;26.32;29.67;98966.61;223529;183;137023;-63
2023/05/22 13:30:38;;;;;;;5.80;2.80;;;;;;;26.24;29.01;98960.83;223570;183;145342;-65
2023/05/22 13:35:43;;;;;;;9.10;2.80;;;;;;;26.11;29.32;98964.13;223379;183;138769;-63
2023/05/22 13:40:46;;;;;;;5.50;2.80;;;;;;;26.29;28.86;98955.08;223522;184;136819;-64
2023/05/22 13:45:50;;;;;;;8.90;2.80;;;;;;;26.08;28.43;98951.94;223465;216;145657;-64
2023/05/22 13:50:53;;;;;;;11.00;2.90;;;;;;;25.39;28.72;98946.66;223422;217;139120;-63
2023/05/22 13:55:57;;;;;;;9.80;2.80;;;;;;;24.91;29.00;98942.03;223477;184;136440;-64
2023/05/22 14:01:00;;;;;;;7.30;2.60;;;;;;;24.39;29.64;98943.14;223580;184;146200;-66
2023/05/22 14:06:03;;;;;;;7.30;2.80;;;;;;;24.11;30.39;98945.44;223508;182;138935;-66
2023/05/22 14:11:07;;;;;;;14.00;6.80;;;;;;;23.85;30.80;98947.00;223558;182;137030;-64
2023/05/22 14:16:10;;;;;;;5.80;2.90;;;;;;;23.68;31.21;98941.21;223644;182;146028;-64
2023/05/22 14:21:13;;;;;;;13.80;3.50;;;;;;;23.61;31.68;98937.80;223755;182;138704;-65
2023/05/22 14:26:16;;;;;;;20.40;7.50;;;;;;;23.61;31.94;98937.67;223702;181;136840;-64
2023/05/22 14:31:20;;;;;;;14.40;6.50;;;;;;;23.46;32.44;98932.55;223733;181;145111;-66
2023/05/22 14:36:23;;;;;;;12.20;5.80;;;;;;;23.28;32.69;98927.16;223699;182;139815;-67
2023/05/22 14:41:27;;;;;;;13.70;4.70;;;;;;;23.10;33.22;98923.27;223661;182;137280;-65
2023/05/22 14:46:30;;;;;;;12.50;3.70;;;;;;;22.90;33.72;98915.65;223653;181;145911;-65
2023/05/22 14:51:33;;;;;;;8.90;4.40;;;;;;;22.68;33.95;98913.99;223601;181;140019;-66
2023/05/22 14:56:36;;;;;;;4.70;2.90;;;;;;;22.59;34.04;98914.00;223597;182;137462;-65
2023/05/22 15:01:40;;;;;;;5.50;2.60;;;;;;;22.54;34.36;98914.05;223721;181;145716;-63
2023/05/22 15:06:46;;;;;;;6.90;2.70;;;;;;;22.46;34.74;98915.64;223593;181;138408;-63
2023/05/22 15:11:49;;;;;;;11.40;3.00;;;;;;;22.45;34.82;98913.07;223629;181;136325;-62
2023/05/22 15:16:53;;;;;;;8.80;2.80;;;;;;;22.51;34.96;98907.11;223655;181;145210;-63
2023/05/22 15:21:56;;;;;;;6.80;2.40;;;;;;;22.53;35.34;98898.02;223650;181;138506;-63
2023/05/22 15:27:10;;;;;;;10.40;2.60;;;;;;;22.60;35.17;98894.74;223761;182;137326;-61
2023/05/22 15:32:14;;;;;;;53.60;6.50;;;;;;;22.62;35.35;98889.95;223712;182;146003;-62
2023/05/22 15:37:17;;;;;;;22.00;5.10;;;;;;;22.60;35.73;98891.86;223663;181;139369;-62
2023/05/22 15:42:21;;;;;;;18.80;3.80;;;;;;;22.60;36.36;98890.19;223679;181;136872;-64
2023/05/22 15:47:24;;;;;;;159.70;123.40;;;;;;;22.55;36.60;98888.91;223703;181;145263;-65
2023/05/22 15:52:27;;;;;;;21.50;7.00;;;;;;;22.55;37.83;98888.04;223646;181;139005;-68
2023/05/22 15:57:30;;;;;;;8.50;3.30;;;;;;;22.53;38.70;98883.20;223827;182;137705;-64
2023/05/22 16:02:33;;;;;;;7.80;2.80;;;;;;;22.44;37.71;98879.00;223654;182;145205;-63
2023/05/22 16:07:37;;;;;;;6.30;3.00;;;;;;;22.34;37.47;98877.02;223607;181;138247;-65
2023/05/22 16:12:40;;;;;;;5.90;3.80;;;;;;;22.25;37.47;98874.11;223690;181;137749;-63
2023/05/22 16:17:44;;;;;;;7.00;3.10;;;;;;;22.16;37.55;98872.94;223665;181;147076;-66
2023/05/22 16:22:47;;;;;;;5.90;3.10;;;;;;;22.08;37.25;98877.58;223610;181;139176;-65
2023/05/22 16:27:51;;;;;;;7.30;3.40;;;;;;;21.99;37.55;98866.31;223700;181;137133;-66
2023/05/22 16:32:54;;;;;;;7.90;3.70;;;;;;;21.93;38.10;98868.60;223631;182;147125;-66
2023/05/22 16:37:57;;;;;;;10.60;3.50;;;;;;;21.88;38.18;98868.31;223604;182;139076;-62
2023/05/22 16:43:01;;;;;;;10.60;5.30;;;;;;;21.88;38.65;98869.41;223662;181;138828;-63
2023/05/22 16:48:12;;;;;;;8.50;4.00;;;;;;;21.87;39.06;98871.52;223675;181;146944;-63
2023/05/22 16:53:16;;;;;;;8.00;3.80;;;;;;;21.83;39.31;98876.97;223674;181;138775;-63
2023/05/22 16:58:20;;;;;;;10.60;4.00;;;;;;;21.76;40.18;98872.58;223682;182;139802;-63
2023/05/22 17:03:24;;;;;;;46.80;35.20;;;;;;;21.70;40.48;98873.88;223643;181;145553;-67
2023/05/22 17:08:28;;;;;;;149.30;117.30;;;;;;;21.64;41.46;98872.29;223669;181;139567;-65
2023/05/22 17:13:33;;;;;;;12.40;6.60;;;;;;;21.53;42.02;98873.80;223686;182;136897;-63
2023/05/22 17:18:36;;;;;;;51.50;38.40;;;;;;;21.45;42.44;98878.14;223666;181;145625;-63
2023/05/22 17:23:40;;;;;;;16.60;7.70;;;;;;;21.37;43.53;98881.52;223596;181;138384;-63
2023/05/22 17:28:43;;;;;;;9.70;3.90;;;;;;;21.30;43.72;98877.76;223613;181;138556;-64
2023/05/22 17:33:46;;;;;;;8.40;3.80;;;;;;;21.23;43.66;98883.49;223626;181;145211;-63
2023/05/22 17:38:50;;;;;;;8.60;4.00;;;;;;;21.14;44.28;98890.69;223741;182;138260;-65
2023/05/22 17:43:54;;;;;;;8.80;4.70;;;;;;;21.03;44.78;98889.55;223778;181;136389;-63
2023/05/22 17:48:57;;;;;;;7.00;4.00;;;;;;;20.95;44.62;98885.30;223666;181;145844;-62
2023/05/22 17:54:01;;;;;;;7.60;3.90;;;;;;;20.92;44.58;98882.06;223564;181;140174;-62
2023/05/22 17:59:06;;;;;;;10.40;4.30;;;;;;;20.88;44.69;98878.89;223803;181;138627;-66
2023/05/22 18:04:11;;;;;;;;;;;;;;;20.80;44.89;98878.22;223516;181;147480;-67
2023/05/22 18:09:14;;;;;;;6.30;4.50;;;;;;;20.71;45.36;98875.29;223527;183;139074;-66
2023/05/22 18:14:17;;;;;;;7.30;4.30;;;;;;;20.62;45.61;98871.73;223529;181;137509;-66
2023/05/22 18:19:20;;;;;;;7.30;3.70;;;;;;;20.54;45.78;98871.48;223507;186;144945;-66
2023/05/22 18:24:26;;;;;;;10.40;4.30;;;;;;;20.47;46.42;98870.56;223447;181;138397;-66
2023/05/22 18:29:30;;;;;;;8.00;4.40;;;;;;;20.36;46.61;98865.11;223431;186;136842;-65
2023/05/22 18:34:34;;;;;;;10.50;4.10;;;;;;;20.30;46.96;98865.48;223475;181;145461;-66
2023/05/22 18:39:39;;;;;;;10.10;4.50;;;;;;;20.27;47.20;98867.84;223472;182;138444;-66
2023/05/22 18:44:42;;;;;;;97.60;72.80;;;;;;;20.17;47.47;98872.02;223469;181;136603;-66
2023/05/22 18:49:47;;;;;;;11.70;7.80;;;;;;;19.96;47.96;98872.66;223468;204;145132;-66
2023/05/22 18:54:50;;;;;;;9.90;5.70;;;;;;;19.75;48.83;98871.06;223437;181;138402;-67
2023/05/22 18:59:53;;;;;;;7.80;4.90;;;;;;;19.57;49.06;98868.94;223467;181;137503;-66
2023/05/22 19:04:56;;;;;;;10.00;5.30;;;;;;;19.43;49.66;98867.36;223454;181;145661;-65
2023/05/22 19:09:59;;;;;;;16.40;5.10;;;;;;;19.27;49.96;98867.52;223521;182;138214;-66
2023/05/22 19:15:04;;;;;;;11.00;5.40;;;;;;;19.14;50.07;98866.86;223526;188;136683;-66
2023/05/22 19:20:08;;;;;;;10.20;5.30;;;;;;;19.03;50.60;98876.03;223506;182;145290;-65
2023/05/22 19:25:11;;;;;;;12.80;5.40;;;;;;;18.91;50.44;98876.08;223418;181;138664;-67
2023/05/22 19:30:15;;;;;;;10.00;5.50;;;;;;;18.81;50.55;98880.95;223434;182;136630;-67
2023/05/22 19:35:18;;;;;;;198.70;151.40;;;;;;;18.72;50.57;98879.61;223397;181;145836;-67
2023/05/22 19:40:21;;;;;;;17.80;12.90;;;;;;;18.67;50.95;98878.80;223366;181;140584;-67
2023/05/22 19:45:25;;;;;;;10.50;5.60;;;;;;;18.56;51.04;98881.16;223506;215;137361;-68
2023/05/22 19:50:28;;;;;;;10.50;5.60;;;;;;;18.42;50.87;98876.58;223433;182;145045;-67
2023/05/22 19:55:31;;;;;;;11.40;5.50;;;;;;;18.31;50.90;98876.95;223504;182;138837;-67
2023/05/22 20:00:36;;;;;;;10.20;5.30;;;;;;;18.20;50.96;98878.68;223462;182;137250;-67
2023/05/22 20:05:40;;;;;;;8.40;4.80;;;;;;;18.10;50.82;98878.43;223578;181;147547;-67
2023/05/22 20:10:52;;;;;;;18.20;6.30;;;;;;;18.01;51.23;98879.83;223623;181;138961;-64
2023/05/22 20:15:56;;;;;;;12.10;5.20;;;;;;;17.92;51.08;98874.89;223629;181;137091;-66
2023/05/22 20:20:59;;;;;;;11.80;4.80;;;;;;;17.85;51.09;98873.80;223702;181;147144;-65
2023/05/22 20:26:02;;;;;;;7.10;5.00;;;;;;;17.79;50.95;98873.01;223729;181;138336;-66
2023/05/22 20:31:05;;;;;;;8.40;4.90;;;;;;;17.70;51.19;98870.16;223628;181;137662;-64
2023/05/22 20:36:09;;;;;;;10.10;5.00;;;;;;;17.62;51.38;98868.05;223689;181;147567;-64
2023/05/22 20:41:12;;;;;;;11.80;4.90;;;;;;;17.55;51.50;98867.66;223665;182;138103;-64
2023/05/22 20:46:15;;;;;;;8.70;5.00;;;;;;;17.49;51.39;98865.47;223703;182;138185;-64
2023/05/22 20:51:19;;;;;;;7.70;4.90;;;;;;;17.43;51.68;98863.95;223640;181;146811;-64
2023/05/22 20:56:22;;;;;;;11.50;5.30;;;;;;;17.36;51.74;98863.84;223691;182;138455;-64
2023/05/22 21:01:26;;;;;;;9.70;4.50;;;;;;;17.29;51.58;98867.02;223709;182;137366;-64
2023/05/22 21:06:30;;;;;;;14.50;4.90;;;;;;;17.22;51.77;98867.64;223745;181;147017;-63
2023/05/22 21:11:33;;;;;;;13.40;5.40;;;;;;;17.16;51.69;98862.98;223643;181;140349;-65
2023/05/22 21:16:36;;;;;;;11.80;5.20;;;;;;;17.09;51.81;98863.85;223591;181;137792;-64
2023/05/22 21:21:41;;;;;;;14.00;5.60;;;;;;;17.02;52.05;98863.59;223685;182;147999;-64
2023/05/22 21:26:44;;;;;;;11.10;5.10;;;;;;;16.95;52.52;98859.53;223727;181;140078;-65
2023/05/22 21:31:48;;;;;;;9.10;4.60;;;;;;;16.89;52.48;98864.08;223699;181;137360;-64
2023/05/22 21:36:51;;;;;;;8.30;5.00;;;;;;;16.81;52.79;98863.73;223766;181;147115;-66
2023/05/22 21:41:54;;;;;;;9.30;4.80;;;;;;;16.73;53.24;98865.98;223612;181;138100;-64
2023/05/22 21:46:57;;;;;;;9.60;5.60;;;;;;;16.66;53.79;98865.56;223656;182;136875;-68
2023/05/22 21:52:05;;;;;;;10.50;6.10;;;;;;;16.58;53.82;98865.35;223592;181;149892;-68
2023/05/22 21:57:19;;;;;;;11.10;5.60;;;;;;;16.52;54.56;98867.90;223656;181;138324;-66
2023/05/22 22:02:23;;;;;;;7.80;5.30;;;;;;;16.46;55.35;98863.42;223683;181;138085;-67
2023/05/22 22:07:26;;;;;;;10.70;5.80;;;;;;;16.41;55.42;98861.71;223592;181;147165;-67
2023/05/22 22:12:29;;;;;;;8.70;5.40;;;;;;;16.42;55.46;98859.34;223678;182;138561;-66
2023/05/22 22:17:33;;;;;;;8.00;5.80;;;;;;;16.41;55.64;98857.07;223656;181;137118;-65
2023/05/22 22:22:37;;;;;;;10.30;5.60;;;;;;;16.40;55.49;98862.50;223697;181;148206;-65
2023/05/22 22:27:40;;;;;;;8.60;5.90;;;;;;;16.40;55.54;98863.23;223567;181;138498;-69
2023/05/22 22:32:43;;;;;;;13.40;5.90;;;;;;;16.38;55.60;98857.63;223599;181;136611;-68
2023/05/22 22:37:50;;;;;;;10.60;5.90;;;;;;;16.37;55.59;98852.58;223657;181;147617;-66
2023/05/22 22:42:53;;;;;;;10.70;5.60;;;;;;;16.35;55.69;98852.02;223589;182;139270;-67
2023/05/22 22:47:57;;;;;;;10.80;6.30;;;;;;;16.32;55.69;98849.01;223668;181;137052;-65
2023/05/22 22:53:00;;;;;;;8.80;5.90;;;;;;;16.30;55.83;98849.27;223617;181;149739;-68
2023/05/22 22:58:04;;;;;;;13.20;6.20;;;;;;;16.25;55.90;98845.05;223691;181;140582;-65
2023/05/22 23:03:07;;;;;;;12.80;6.70;;;;;;;16.19;56.10;98841.61;223651;181;137126;-66
2023/05/22 23:08:11;;;;;;;12.40;6.40;;;;;;;16.15;56.22;98840.08;223674;181;146725;-66
2023/05/22 23:13:14;;;;;;;10.60;5.70;;;;;;;16.09;56.30;98836.80;223560;181;138118;-65
2023/05/22 23:18:18;;;;;;;11.60;6.20;;;;;;;16.05;56.42;98833.36;223679;181;138118;-65
2023/05/22 23:23:21;;;;;;;10.70;6.00;;;;;;;16.03;56.50;98825.70;223623;181;148156;-66
2023/05/22 23:28:24;;;;;;;10.10;5.60;;;;;;;16.02;56.67;98823.27;223688;178;139073;-66
2023/05/22 23:33:28;;;;;;;12.40;5.50;;;;;;;16.05;56.67;98817.44;223658;181;137385;-64
2023/05/22 23:38:31;;;;;;;6.70;5.30;;;;;;;16.09;56.81;98816.40;223667;181;147288;-67
2023/05/22 23:43:34;;;;;;;6.40;5.30;;;;;;;16.05;56.80;98807.23;223669;181;139815;-65
2023/05/22 23:48:38;;;;;;;8.90;5.60;;;;;;;16.05;56.86;98809.23;223607;181;137260;-68
2023/05/22 23:53:41;;;;;;;11.60;5.50;;;;;;;16.04;56.86;98800.19;223666;181;147125;-66
2023/05/22 23:58:45;;;;;;;11.30;5.80;;;;;;;16.01;56.95;98796.19;223722;178;138215;-66
